sensor_id;sensor_type;location;lat;lon;timestamp;P1;durP1;ratioP1;P2;durP2;ratioP2
62941;SDS011;49042;47.318;19.874;2023-04-06T00:01:58;22.30;;;9.13;;
62941;SDS011;49042;47.318;19.874;2023-04-06T00:05:00;17.42;;;9.13;;
62941;SDS011;49042;47.318;19.874;2023-04-06T00:08:02;17.27;;;8.73;;
62941;SDS011;49042;47.318;19.874;2023-04-06T00:11:04;21.50;;;8.93;;
62941;SDS011;49042;47.318;19.874;2023-04-06T00:14:06;15.35;;;7.32;;
62941;SDS011;49042;47.318;19.874;2023-04-06T00:17:07;15.15;;;6.85;;
62941;SDS011;49042;47.318;19.874;2023-04-06T00:20:09;14.73;;;6.68;;
62941;SDS011;49042;47.318;19.874;2023-04-06T00:23:11;14.50;;;6.35;;
62941;SDS011;49042;47.318;19.874;2023-04-06T00:26:32;10.65;;;5.97;;
62941;SDS011;49042;47.318;19.874;2023-04-06T00:29:33;10.48;;;6.22;;
62941;SDS011;49042;47.318;19.874;2023-04-06T00:32:35;10.65;;;6.93;;
62941;SDS011;49042;47.318;19.874;2023-04-06T00:35:37;15.73;;;6.95;;
62941;SDS011;49042;47.318;19.874;2023-04-06T00:38:40;16.35;;;8.20;;
62941;SDS011;49042;47.318;19.874;2023-04-06T00:41:44;16.08;;;8.05;;
62941;SDS011;49042;47.318;19.874;2023-04-06T00:44:48;24.73;;;11.52;;
62941;SDS011;49042;47.318;19.874;2023-04-06T00:47:49;24.83;;;12.85;;
62941;SDS011;49042;47.318;19.874;2023-04-06T00:50:51;29.55;;;13.13;;
62941;SDS011;49042;47.318;19.874;2023-04-06T00:53:53;28.17;;;12.25;;
62941;SDS011;49042;47.318;19.874;2023-04-06T00:56:55;21.75;;;11.63;;
62941;SDS011;49042;47.318;19.874;2023-04-06T00:59:58;20.17;;;10.02;;
62941;SDS011;49042;47.318;19.874;2023-04-06T01:02:59;24.60;;;11.27;;
62941;SDS011;49042;47.318;19.874;2023-04-06T01:06:02;30.98;;;13.55;;
62941;SDS011;49042;47.318;19.874;2023-04-06T01:09:04;24.65;;;13.00;;
62941;SDS011;49042;47.318;19.874;2023-04-06T01:12:06;23.52;;;11.23;;
62941;SDS011;49042;47.318;19.874;2023-04-06T01:15:07;21.08;;;11.05;;
62941;SDS011;49042;47.318;19.874;2023-04-06T01:18:10;21.10;;;10.73;;
62941;SDS011;49042;47.318;19.874;2023-04-06T01:21:11;17.20;;;8.15;;
62941;SDS011;49042;47.318;19.874;2023-04-06T01:24:16;16.60;;;8.45;;
62941;SDS011;49042;47.318;19.874;2023-04-06T01:27:18;17.95;;;8.35;;
62941;SDS011;49042;47.318;19.874;2023-04-06T01:30:20;21.33;;;8.15;;
62941;SDS011;49042;47.318;19.874;2023-04-06T01:33:21;17.87;;;7.25;;
62941;SDS011;49042;47.318;19.874;2023-04-06T01:36:23;13.07;;;7.70;;
62941;SDS011;49042;47.318;19.874;2023-04-06T01:39:25;13.50;;;7.70;;
62941;SDS011;49042;47.318;19.874;2023-04-06T01:42:27;14.07;;;7.97;;
62941;SDS011;49042;47.318;19.874;2023-04-06T01:45:29;14.43;;;8.38;;
62941;SDS011;49042;47.318;19.874;2023-04-06T01:48:31;22.83;;;11.10;;
62941;SDS011;49042;47.318;19.874;2023-04-06T01:51:33;12.37;;;7.45;;
62941;SDS011;49042;47.318;19.874;2023-04-06T01:54:34;12.70;;;7.00;;
62941;SDS011;49042;47.318;19.874;2023-04-06T01:57:36;14.13;;;7.25;;
62941;SDS011;49042;47.318;19.874;2023-04-06T02:00:37;13.82;;;7.62;;
62941;SDS011;49042;47.318;19.874;2023-04-06T02:03:39;12.55;;;7.45;;
62941;SDS011;49042;47.318;19.874;2023-04-06T02:06:41;15.10;;;7.70;;
62941;SDS011;49042;47.318;19.874;2023-04-06T02:09:43;14.15;;;7.28;;
62941;SDS011;49042;47.318;19.874;2023-04-06T02:12:44;12.88;;;7.55;;
62941;SDS011;49042;47.318;19.874;2023-04-06T02:15:46;12.30;;;7.70;;
62941;SDS011;49042;47.318;19.874;2023-04-06T02:18:49;14.48;;;7.95;;
62941;SDS011;49042;47.318;19.874;2023-04-06T02:21:50;15.05;;;8.52;;
62941;SDS011;49042;47.318;19.874;2023-04-06T02:24:52;15.15;;;7.20;;
62941;SDS011;49042;47.318;19.874;2023-04-06T02:27:54;13.38;;;6.97;;
62941;SDS011;49042;47.318;19.874;2023-04-06T02:30:56;12.80;;;7.20;;
62941;SDS011;49042;47.318;19.874;2023-04-06T02:33:58;14.38;;;7.87;;
62941;SDS011;49042;47.318;19.874;2023-04-06T02:36:59;13.02;;;6.87;;
62941;SDS011;49042;47.318;19.874;2023-04-06T02:40:01;12.37;;;7.25;;
62941;SDS011;49042;47.318;19.874;2023-04-06T02:43:03;17.75;;;8.02;;
62941;SDS011;49042;47.318;19.874;2023-04-06T02:46:05;14.68;;;7.40;;
62941;SDS011;49042;47.318;19.874;2023-04-06T02:49:07;13.93;;;6.97;;
62941;SDS011;49042;47.318;19.874;2023-04-06T02:52:09;12.07;;;7.40;;
62941;SDS011;49042;47.318;19.874;2023-04-06T02:55:11;15.55;;;7.65;;
62941;SDS011;49042;47.318;19.874;2023-04-06T02:58:13;15.45;;;7.22;;
62941;SDS011;49042;47.318;19.874;2023-04-06T03:01:14;14.38;;;7.22;;
62941;SDS011;49042;47.318;19.874;2023-04-06T03:04:16;11.82;;;7.80;;
62941;SDS011;49042;47.318;19.874;2023-04-06T03:07:18;14.90;;;7.37;;
62941;SDS011;49042;47.318;19.874;2023-04-06T03:10:20;14.68;;;7.57;;
62941;SDS011;49042;47.318;19.874;2023-04-06T03:13:21;14.15;;;7.87;;
62941;SDS011;49042;47.318;19.874;2023-04-06T03:16:24;12.70;;;7.25;;
62941;SDS011;49042;47.318;19.874;2023-04-06T03:19:26;15.85;;;7.65;;
62941;SDS011;49042;47.318;19.874;2023-04-06T03:22:28;23.45;;;7.87;;
62941;SDS011;49042;47.318;19.874;2023-04-06T03:25:30;15.68;;;9.32;;
62941;SDS011;49042;47.318;19.874;2023-04-06T03:28:32;14.20;;;7.78;;
62941;SDS011;49042;47.318;19.874;2023-04-06T03:31:33;13.25;;;9.70;;
62941;SDS011;49042;47.318;19.874;2023-04-06T03:34:35;15.48;;;8.15;;
62941;SDS011;49042;47.318;19.874;2023-04-06T03:37:37;17.48;;;9.60;;
62941;SDS011;49042;47.318;19.874;2023-04-06T03:40:39;15.65;;;8.05;;
62941;SDS011;49042;47.318;19.874;2023-04-06T03:43:40;17.45;;;8.27;;
62941;SDS011;49042;47.318;19.874;2023-04-06T03:46:42;14.80;;;8.52;;
62941;SDS011;49042;47.318;19.874;2023-04-06T03:49:44;14.80;;;8.50;;
62941;SDS011;49042;47.318;19.874;2023-04-06T03:52:45;15.50;;;8.27;;
62941;SDS011;49042;47.318;19.874;2023-04-06T03:55:47;15.57;;;8.73;;
62941;SDS011;49042;47.318;19.874;2023-04-06T03:58:49;16.12;;;9.07;;
62941;SDS011;49042;47.318;19.874;2023-04-06T04:01:52;19.42;;;9.13;;
62941;SDS011;49042;47.318;19.874;2023-04-06T04:08:11;14.48;;;8.27;;
62941;SDS011;49042;47.318;19.874;2023-04-06T04:11:12;16.73;;;8.07;;
62941;SDS011;49042;47.318;19.874;2023-04-06T04:14:14;13.02;;;8.35;;
62941;SDS011;49042;47.318;19.874;2023-04-06T04:17:16;19.40;;;8.57;;
62941;SDS011;49042;47.318;19.874;2023-04-06T04:20:17;16.12;;;9.05;;
62941;SDS011;49042;47.318;19.874;2023-04-06T04:23:19;13.95;;;8.43;;
62941;SDS011;49042;47.318;19.874;2023-04-06T04:26:21;13.93;;;8.48;;
62941;SDS011;49042;47.318;19.874;2023-04-06T04:29:22;13.45;;;8.07;;
62941;SDS011;49042;47.318;19.874;2023-04-06T04:32:24;15.05;;;8.88;;
62941;SDS011;49042;47.318;19.874;2023-04-06T04:35:28;13.95;;;8.23;;
62941;SDS011;49042;47.318;19.874;2023-04-06T04:38:30;12.95;;;7.65;;
62941;SDS011;49042;47.318;19.874;2023-04-06T04:41:32;16.75;;;8.73;;
62941;SDS011;49042;47.318;19.874;2023-04-06T04:44:33;18.60;;;8.95;;
62941;SDS011;49042;47.318;19.874;2023-04-06T04:47:35;13.82;;;8.23;;
62941;SDS011;49042;47.318;19.874;2023-04-06T04:50:37;20.50;;;9.32;;
62941;SDS011;49042;47.318;19.874;2023-04-06T04:53:39;12.07;;;8.32;;
62941;SDS011;49042;47.318;19.874;2023-04-06T04:56:40;18.62;;;9.45;;
62941;SDS011;49042;47.318;19.874;2023-04-06T04:59:42;22.70;;;12.40;;
62941;SDS011;49042;47.318;19.874;2023-04-06T05:02:44;76.10;;;39.33;;
62941;SDS011;49042;47.318;19.874;2023-04-06T05:05:46;26.10;;;15.05;;
62941;SDS011;49042;47.318;19.874;2023-04-06T05:08:48;19.83;;;9.90;;
62941;SDS011;49042;47.318;19.874;2023-04-06T05:11:49;19.80;;;8.93;;
62941;SDS011;49042;47.318;19.874;2023-04-06T05:14:51;17.50;;;9.07;;
62941;SDS011;49042;47.318;19.874;2023-04-06T05:17:53;21.10;;;8.55;;
62941;SDS011;49042;47.318;19.874;2023-04-06T05:20:55;15.48;;;8.52;;
62941;SDS011;49042;47.318;19.874;2023-04-06T05:23:56;14.52;;;8.80;;
62941;SDS011;49042;47.318;19.874;2023-04-06T05:26:59;14.27;;;8.63;;
62941;SDS011;49042;47.318;19.874;2023-04-06T05:30:01;15.68;;;8.25;;
62941;SDS011;49042;47.318;19.874;2023-04-06T05:33:03;14.18;;;8.82;;
62941;SDS011;49042;47.318;19.874;2023-04-06T05:36:05;15.50;;;8.15;;
62941;SDS011;49042;47.318;19.874;2023-04-06T05:39:08;13.68;;;8.85;;
62941;SDS011;49042;47.318;19.874;2023-04-06T05:42:10;15.45;;;9.55;;
62941;SDS011;49042;47.318;19.874;2023-04-06T05:45:12;29.92;;;12.77;;
62941;SDS011;49042;47.318;19.874;2023-04-06T05:48:18;29.12;;;12.70;;
62941;SDS011;49042;47.318;19.874;2023-04-06T05:51:19;30.58;;;13.80;;
62941;SDS011;49042;47.318;19.874;2023-04-06T05:54:21;32.15;;;12.90;;
62941;SDS011;49042;47.318;19.874;2023-04-06T05:57:23;25.42;;;10.20;;
62941;SDS011;49042;47.318;19.874;2023-04-06T06:00:24;15.10;;;8.07;;
62941;SDS011;49042;47.318;19.874;2023-04-06T06:03:27;13.68;;;7.20;;
62941;SDS011;49042;47.318;19.874;2023-04-06T06:06:29;14.20;;;6.03;;
62941;SDS011;49042;47.318;19.874;2023-04-06T06:09:31;12.05;;;7.10;;
62941;SDS011;49042;47.318;19.874;2023-04-06T06:12:33;12.88;;;7.20;;
62941;SDS011;49042;47.318;19.874;2023-04-06T06:15:34;14.68;;;6.97;;
62941;SDS011;49042;47.318;19.874;2023-04-06T06:18:36;33.13;;;18.87;;
62941;SDS011;49042;47.318;19.874;2023-04-06T06:21:38;12.13;;;7.82;;
62941;SDS011;49042;47.318;19.874;2023-04-06T06:24:39;16.02;;;8.20;;
62941;SDS011;49042;47.318;19.874;2023-04-06T06:27:41;14.18;;;6.80;;
62941;SDS011;49042;47.318;19.874;2023-04-06T06:30:43;13.48;;;6.35;;
62941;SDS011;49042;47.318;19.874;2023-04-06T06:33:45;13.62;;;6.85;;
62941;SDS011;49042;47.318;19.874;2023-04-06T06:36:51;11.65;;;6.55;;
62941;SDS011;49042;47.318;19.874;2023-04-06T06:39:53;10.18;;;6.22;;
62941;SDS011;49042;47.318;19.874;2023-04-06T06:42:54;12.93;;;7.15;;
62941;SDS011;49042;47.318;19.874;2023-04-06T06:45:56;15.02;;;7.35;;
62941;SDS011;49042;47.318;19.874;2023-04-06T06:49:00;14.50;;;7.32;;
62941;SDS011;49042;47.318;19.874;2023-04-06T06:52:01;14.63;;;7.05;;
62941;SDS011;49042;47.318;19.874;2023-04-06T06:55:03;12.95;;;6.82;;
62941;SDS011;49042;47.318;19.874;2023-04-06T06:58:05;15.30;;;6.95;;
62941;SDS011;49042;47.318;19.874;2023-04-06T07:01:07;13.35;;;6.70;;
62941;SDS011;49042;47.318;19.874;2023-04-06T07:04:09;11.02;;;6.30;;
62941;SDS011;49042;47.318;19.874;2023-04-06T07:07:11;10.88;;;6.05;;
62941;SDS011;49042;47.318;19.874;2023-04-06T07:10:13;10.68;;;6.55;;
62941;SDS011;49042;47.318;19.874;2023-04-06T07:13:15;16.17;;;6.18;;
62941;SDS011;49042;47.318;19.874;2023-04-06T07:16:23;11.75;;;6.00;;
62941;SDS011;49042;47.318;19.874;2023-04-06T07:19:24;11.80;;;5.97;;
62941;SDS011;49042;47.318;19.874;2023-04-06T07:22:26;12.02;;;6.35;;
62941;SDS011;49042;47.318;19.874;2023-04-06T07:25:28;13.88;;;6.62;;
62941;SDS011;49042;47.318;19.874;2023-04-06T07:28:30;15.95;;;5.75;;
62941;SDS011;49042;47.318;19.874;2023-04-06T07:31:32;9.80;;;5.82;;
62941;SDS011;49042;47.318;19.874;2023-04-06T07:34:34;13.77;;;6.55;;
62941;SDS011;49042;47.318;19.874;2023-04-06T07:37:36;10.38;;;6.43;;
62941;SDS011;49042;47.318;19.874;2023-04-06T07:40:38;12.82;;;6.25;;
62941;SDS011;49042;47.318;19.874;2023-04-06T07:43:39;10.50;;;6.15;;
62941;SDS011;49042;47.318;19.874;2023-04-06T07:46:41;13.05;;;6.37;;
62941;SDS011;49042;47.318;19.874;2023-04-06T07:49:44;8.32;;;5.62;;
62941;SDS011;49042;47.318;19.874;2023-04-06T07:52:46;14.98;;;5.65;;
62941;SDS011;49042;47.318;19.874;2023-04-06T07:55:48;9.55;;;5.65;;
62941;SDS011;49042;47.318;19.874;2023-04-06T07:58:50;10.43;;;5.20;;
62941;SDS011;49042;47.318;19.874;2023-04-06T08:01:54;8.98;;;5.43;;
62941;SDS011;49042;47.318;19.874;2023-04-06T08:04:56;10.52;;;5.60;;
62941;SDS011;49042;47.318;19.874;2023-04-06T08:07:58;8.75;;;4.85;;
62941;SDS011;49042;47.318;19.874;2023-04-06T08:11:00;8.82;;;5.25;;
62941;SDS011;49042;47.318;19.874;2023-04-06T08:14:03;9.52;;;5.80;;
62941;SDS011;49042;47.318;19.874;2023-04-06T08:17:05;11.52;;;5.18;;
62941;SDS011;49042;47.318;19.874;2023-04-06T08:20:07;9.13;;;5.40;;
62941;SDS011;49042;47.318;19.874;2023-04-06T08:23:09;9.73;;;5.82;;
62941;SDS011;49042;47.318;19.874;2023-04-06T08:26:12;10.35;;;5.87;;
62941;SDS011;49042;47.318;19.874;2023-04-06T08:29:13;9.52;;;6.00;;
62941;SDS011;49042;47.318;19.874;2023-04-06T08:32:15;18.45;;;6.75;;
62941;SDS011;49042;47.318;19.874;2023-04-06T08:35:17;9.77;;;5.70;;
62941;SDS011;49042;47.318;19.874;2023-04-06T08:38:19;10.07;;;6.00;;
62941;SDS011;49042;47.318;19.874;2023-04-06T08:41:21;13.02;;;6.10;;
62941;SDS011;49042;47.318;19.874;2023-04-06T08:44:26;11.38;;;6.20;;
62941;SDS011;49042;47.318;19.874;2023-04-06T08:47:28;12.95;;;6.10;;
62941;SDS011;49042;47.318;19.874;2023-04-06T08:50:30;9.93;;;6.32;;
62941;SDS011;49042;47.318;19.874;2023-04-06T08:53:36;12.13;;;6.90;;
62941;SDS011;49042;47.318;19.874;2023-04-06T08:56:38;13.25;;;7.40;;
62941;SDS011;49042;47.318;19.874;2023-04-06T08:59:41;12.48;;;6.45;;
62941;SDS011;49042;47.318;19.874;2023-04-06T09:02:45;12.45;;;6.47;;
62941;SDS011;49042;47.318;19.874;2023-04-06T09:05:47;38.10;;;16.27;;
62941;SDS011;49042;47.318;19.874;2023-04-06T09:08:49;16.45;;;8.43;;
62941;SDS011;49042;47.318;19.874;2023-04-06T09:11:51;32.33;;;13.60;;
62941;SDS011;49042;47.318;19.874;2023-04-06T09:14:53;17.23;;;8.20;;
62941;SDS011;49042;47.318;19.874;2023-04-06T09:17:57;15.52;;;7.18;;
62941;SDS011;49042;47.318;19.874;2023-04-06T09:21:03;13.02;;;6.80;;
62941;SDS011;49042;47.318;19.874;2023-04-06T09:24:07;12.40;;;7.43;;
62941;SDS011;49042;47.318;19.874;2023-04-06T09:27:09;15.40;;;8.20;;
62941;SDS011;49042;47.318;19.874;2023-04-06T09:30:11;14.75;;;7.32;;
62941;SDS011;49042;47.318;19.874;2023-04-06T09:33:24;25.90;;;8.13;;
62941;SDS011;49042;47.318;19.874;2023-04-06T09:39:43;11.57;;;7.30;;
62941;SDS011;49042;47.318;19.874;2023-04-06T09:42:46;19.02;;;7.62;;
62941;SDS011;49042;47.318;19.874;2023-04-06T09:45:49;13.02;;;7.18;;
62941;SDS011;49042;47.318;19.874;2023-04-06T09:48:51;14.82;;;6.78;;
62941;SDS011;49042;47.318;19.874;2023-04-06T09:51:55;12.23;;;7.30;;
62941;SDS011;49042;47.318;19.874;2023-04-06T09:55:02;17.35;;;7.55;;
62941;SDS011;49042;47.318;19.874;2023-04-06T09:58:06;21.65;;;7.70;;
62941;SDS011;49042;47.318;19.874;2023-04-06T10:01:12;17.10;;;7.80;;
62941;SDS011;49042;47.318;19.874;2023-04-06T10:04:23;14.45;;;7.70;;
62941;SDS011;49042;47.318;19.874;2023-04-06T10:07:26;15.15;;;7.65;;
62941;SDS011;49042;47.318;19.874;2023-04-06T10:10:29;18.55;;;7.87;;
62941;SDS011;49042;47.318;19.874;2023-04-06T10:13:31;14.35;;;8.38;;
62941;SDS011;49042;47.318;19.874;2023-04-06T10:16:33;18.10;;;7.35;;
62941;SDS011;49042;47.318;19.874;2023-04-06T10:19:44;12.15;;;7.30;;
62941;SDS011;49042;47.318;19.874;2023-04-06T10:26:19;15.20;;;7.30;;
62941;SDS011;49042;47.318;19.874;2023-04-06T10:29:22;14.00;;;7.28;;
62941;SDS011;49042;47.318;19.874;2023-04-06T10:32:31;15.88;;;7.07;;
62941;SDS011;49042;47.318;19.874;2023-04-06T10:35:40;18.92;;;7.78;;
62941;SDS011;49042;47.318;19.874;2023-04-06T10:38:42;16.73;;;7.93;;
62941;SDS011;49042;47.318;19.874;2023-04-06T10:41:45;17.25;;;8.10;;
62941;SDS011;49042;47.318;19.874;2023-04-06T10:44:49;19.23;;;8.32;;
62941;SDS011;49042;47.318;19.874;2023-04-06T10:47:54;16.80;;;7.30;;
62941;SDS011;49042;47.318;19.874;2023-04-06T10:50:57;14.10;;;7.37;;
62941;SDS011;49042;47.318;19.874;2023-04-06T10:53:58;12.60;;;7.50;;
62941;SDS011;49042;47.318;19.874;2023-04-06T10:57:01;18.33;;;7.62;;
62941;SDS011;49042;47.318;19.874;2023-04-06T11:00:06;16.52;;;7.37;;
62941;SDS011;49042;47.318;19.874;2023-04-06T11:03:13;13.95;;;7.85;;
62941;SDS011;49042;47.318;19.874;2023-04-06T11:06:21;15.20;;;8.52;;
62941;SDS011;49042;47.318;19.874;2023-04-06T11:12:27;21.40;;;8.07;;
62941;SDS011;49042;47.318;19.874;2023-04-06T11:15:33;13.32;;;7.55;;
62941;SDS011;49042;47.318;19.874;2023-04-06T11:18:46;14.38;;;8.32;;
62941;SDS011;49042;47.318;19.874;2023-04-06T11:21:52;20.23;;;8.93;;
62941;SDS011;49042;47.318;19.874;2023-04-06T11:25:04;14.32;;;7.45;;
62941;SDS011;49042;47.318;19.874;2023-04-06T11:28:10;15.93;;;7.78;;
62941;SDS011;49042;47.318;19.874;2023-04-06T11:31:12;14.05;;;7.93;;
62941;SDS011;49042;47.318;19.874;2023-04-06T11:34:20;30.35;;;17.95;;
62941;SDS011;49042;47.318;19.874;2023-04-06T11:37:25;35.83;;;17.65;;
62941;SDS011;49042;47.318;19.874;2023-04-06T11:40:28;20.73;;;8.50;;
62941;SDS011;49042;47.318;19.874;2023-04-06T11:43:31;11.35;;;7.40;;
62941;SDS011;49042;47.318;19.874;2023-04-06T11:46:33;14.63;;;7.35;;
62941;SDS011;49042;47.318;19.874;2023-04-06T11:49:39;14.05;;;8.70;;
62941;SDS011;49042;47.318;19.874;2023-04-06T11:52:42;17.60;;;8.20;;
62941;SDS011;49042;47.318;19.874;2023-04-06T11:55:44;14.27;;;8.00;;
62941;SDS011;49042;47.318;19.874;2023-04-06T11:58:48;18.17;;;8.65;;
62941;SDS011;49042;47.318;19.874;2023-04-06T12:01:50;13.57;;;7.35;;
62941;SDS011;49042;47.318;19.874;2023-04-06T12:04:53;25.05;;;12.15;;
62941;SDS011;49042;47.318;19.874;2023-04-06T12:07:55;20.75;;;10.23;;
62941;SDS011;49042;47.318;19.874;2023-04-06T12:11:00;33.92;;;14.93;;
62941;SDS011;49042;47.318;19.874;2023-04-06T12:14:02;22.35;;;10.05;;
62941;SDS011;49042;47.318;19.874;2023-04-06T12:17:06;15.65;;;9.05;;
62941;SDS011;49042;47.318;19.874;2023-04-06T12:20:07;17.08;;;8.30;;
62941;SDS011;49042;47.318;19.874;2023-04-06T12:26:27;15.90;;;9.23;;
62941;SDS011;49042;47.318;19.874;2023-04-06T12:29:29;16.12;;;9.18;;
62941;SDS011;49042;47.318;19.874;2023-04-06T12:32:31;15.43;;;8.93;;
62941;SDS011;49042;47.318;19.874;2023-04-06T12:35:33;14.18;;;7.97;;
62941;SDS011;49042;47.318;19.874;2023-04-06T12:38:35;18.83;;;10.93;;
62941;SDS011;49042;47.318;19.874;2023-04-06T12:41:39;18.25;;;9.95;;
62941;SDS011;49042;47.318;19.874;2023-04-06T12:44:44;16.20;;;10.23;;
62941;SDS011;49042;47.318;19.874;2023-04-06T12:47:46;15.40;;;9.10;;
62941;SDS011;49042;47.318;19.874;2023-04-06T12:50:57;14.05;;;8.38;;
62941;SDS011;49042;47.318;19.874;2023-04-06T12:54:00;14.48;;;8.68;;
62941;SDS011;49042;47.318;19.874;2023-04-06T12:57:02;14.07;;;8.63;;
62941;SDS011;49042;47.318;19.874;2023-04-06T13:00:04;16.87;;;10.18;;
62941;SDS011;49042;47.318;19.874;2023-04-06T13:03:09;23.75;;;11.68;;
62941;SDS011;49042;47.318;19.874;2023-04-06T13:06:11;18.08;;;10.10;;
62941;SDS011;49042;47.318;19.874;2023-04-06T13:09:14;17.75;;;9.60;;
62941;SDS011;49042;47.318;19.874;2023-04-06T13:12:16;16.80;;;9.30;;
62941;SDS011;49042;47.318;19.874;2023-04-06T13:15:17;13.65;;;8.57;;
62941;SDS011;49042;47.318;19.874;2023-04-06T13:18:19;16.87;;;10.25;;
62941;SDS011;49042;47.318;19.874;2023-04-06T13:21:21;16.95;;;10.05;;
62941;SDS011;49042;47.318;19.874;2023-04-06T13:24:23;16.40;;;9.77;;
62941;SDS011;49042;47.318;19.874;2023-04-06T13:27:25;17.30;;;8.85;;
62941;SDS011;49042;47.318;19.874;2023-04-06T13:30:28;17.77;;;9.63;;
62941;SDS011;49042;47.318;19.874;2023-04-06T13:33:30;60.78;;;32.03;;
62941;SDS011;49042;47.318;19.874;2023-04-06T13:36:32;21.98;;;13.07;;
62941;SDS011;49042;47.318;19.874;2023-04-06T13:39:34;32.35;;;20.12;;
62941;SDS011;49042;47.318;19.874;2023-04-06T13:42:36;19.15;;;10.63;;
62941;SDS011;49042;47.318;19.874;2023-04-06T13:45:42;15.68;;;11.00;;
62941;SDS011;49042;47.318;19.874;2023-04-06T13:48:51;15.52;;;9.82;;
62941;SDS011;49042;47.318;19.874;2023-04-06T13:51:53;19.23;;;12.48;;
62941;SDS011;49042;47.318;19.874;2023-04-06T13:54:55;19.17;;;11.77;;
62941;SDS011;49042;47.318;19.874;2023-04-06T13:57:57;22.40;;;11.27;;
62941;SDS011;49042;47.318;19.874;2023-04-06T14:01:05;17.08;;;9.68;;
62941;SDS011;49042;47.318;19.874;2023-04-06T14:04:09;17.62;;;10.55;;
62941;SDS011;49042;47.318;19.874;2023-04-06T14:07:11;19.37;;;11.63;;
62941;SDS011;49042;47.318;19.874;2023-04-06T14:10:12;29.25;;;17.58;;
62941;SDS011;49042;47.318;19.874;2023-04-06T14:13:17;22.50;;;12.98;;
62941;SDS011;49042;47.318;19.874;2023-04-06T14:16:21;17.10;;;11.40;;
62941;SDS011;49042;47.318;19.874;2023-04-06T14:19:24;17.00;;;10.60;;
62941;SDS011;49042;47.318;19.874;2023-04-06T14:22:26;20.60;;;12.55;;
62941;SDS011;49042;47.318;19.874;2023-04-06T14:25:28;15.50;;;9.77;;
62941;SDS011;49042;47.318;19.874;2023-04-06T14:28:32;16.50;;;9.90;;
62941;SDS011;49042;47.318;19.874;2023-04-06T14:31:35;17.55;;;10.93;;
62941;SDS011;49042;47.318;19.874;2023-04-06T14:34:37;19.15;;;9.07;;
62941;SDS011;49042;47.318;19.874;2023-04-06T14:37:39;21.77;;;10.05;;
62941;SDS011;49042;47.318;19.874;2023-04-06T14:40:40;14.02;;;9.32;;
62941;SDS011;49042;47.318;19.874;2023-04-06T14:43:42;14.77;;;10.05;;
62941;SDS011;49042;47.318;19.874;2023-04-06T14:46:44;15.63;;;9.55;;
62941;SDS011;49042;47.318;19.874;2023-04-06T14:49:50;16.90;;;9.32;;
62941;SDS011;49042;47.318;19.874;2023-04-06T14:52:53;20.02;;;11.20;;
62941;SDS011;49042;47.318;19.874;2023-04-06T14:55:55;16.55;;;10.23;;
62941;SDS011;49042;47.318;19.874;2023-04-06T14:58:57;17.55;;;10.52;;
62941;SDS011;49042;47.318;19.874;2023-04-06T15:02:01;17.87;;;10.75;;
62941;SDS011;49042;47.318;19.874;2023-04-06T15:05:04;20.08;;;12.30;;
62941;SDS011;49042;47.318;19.874;2023-04-06T15:08:06;18.70;;;11.75;;
62941;SDS011;49042;47.318;19.874;2023-04-06T15:11:10;16.37;;;9.18;;
62941;SDS011;49042;47.318;19.874;2023-04-06T15:14:13;17.75;;;9.57;;
62941;SDS011;49042;47.318;19.874;2023-04-06T15:17:15;15.25;;;8.65;;
62941;SDS011;49042;47.318;19.874;2023-04-06T15:20:16;15.05;;;9.65;;
62941;SDS011;49042;47.318;19.874;2023-04-06T15:23:18;13.88;;;9.80;;
62941;SDS011;49042;47.318;19.874;2023-04-06T15:26:20;18.70;;;13.18;;
62941;SDS011;49042;47.318;19.874;2023-04-06T15:29:22;18.83;;;11.90;;
62941;SDS011;49042;47.318;19.874;2023-04-06T15:32:23;18.27;;;11.30;;
62941;SDS011;49042;47.318;19.874;2023-04-06T15:35:26;20.40;;;12.20;;
62941;SDS011;49042;47.318;19.874;2023-04-06T15:38:30;17.45;;;10.80;;
62941;SDS011;49042;47.318;19.874;2023-04-06T15:41:32;21.27;;;11.52;;
62941;SDS011;49042;47.318;19.874;2023-04-06T15:44:33;17.52;;;11.98;;
62941;SDS011;49042;47.318;19.874;2023-04-06T15:47:42;21.52;;;12.77;;
62941;SDS011;49042;47.318;19.874;2023-04-06T15:50:45;16.35;;;10.68;;
62941;SDS011;49042;47.318;19.874;2023-04-06T15:53:47;24.65;;;14.70;;
62941;SDS011;49042;47.318;19.874;2023-04-06T15:56:49;28.87;;;17.60;;
62941;SDS011;49042;47.318;19.874;2023-04-06T15:59:51;21.67;;;14.02;;
62941;SDS011;49042;47.318;19.874;2023-04-06T16:02:55;20.20;;;13.52;;
62941;SDS011;49042;47.318;19.874;2023-04-06T16:05:57;21.48;;;12.77;;
62941;SDS011;49042;47.318;19.874;2023-04-06T16:09:09;39.75;;;19.05;;
62941;SDS011;49042;47.318;19.874;2023-04-06T16:12:10;24.05;;;15.82;;
62941;SDS011;49042;47.318;19.874;2023-04-06T16:15:12;24.65;;;13.75;;
62941;SDS011;49042;47.318;19.874;2023-04-06T16:18:14;26.52;;;14.32;;
62941;SDS011;49042;47.318;19.874;2023-04-06T16:21:16;25.85;;;14.40;;
62941;SDS011;49042;47.318;19.874;2023-04-06T16:24:18;30.50;;;19.70;;
62941;SDS011;49042;47.318;19.874;2023-04-06T16:27:20;56.88;;;32.22;;
62941;SDS011;49042;47.318;19.874;2023-04-06T16:30:21;35.90;;;23.00;;
62941;SDS011;49042;47.318;19.874;2023-04-06T16:33:24;26.27;;;15.18;;
62941;SDS011;49042;47.318;19.874;2023-04-06T16:36:29;27.00;;;15.05;;
62941;SDS011;49042;47.318;19.874;2023-04-06T16:39:34;27.02;;;14.13;;
62941;SDS011;49042;47.318;19.874;2023-04-06T16:42:36;23.50;;;13.27;;
62941;SDS011;49042;47.318;19.874;2023-04-06T16:45:38;22.58;;;14.87;;
62941;SDS011;49042;47.318;19.874;2023-04-06T16:48:40;19.37;;;12.27;;
62941;SDS011;49042;47.318;19.874;2023-04-06T16:51:42;41.75;;;24.25;;
62941;SDS011;49042;47.318;19.874;2023-04-06T16:54:43;50.45;;;29.33;;
62941;SDS011;49042;47.318;19.874;2023-04-06T16:57:45;28.92;;;18.48;;
62941;SDS011;49042;47.318;19.874;2023-04-06T17:00:49;24.25;;;15.85;;
62941;SDS011;49042;47.318;19.874;2023-04-06T17:03:51;45.03;;;25.02;;
62941;SDS011;49042;47.318;19.874;2023-04-06T17:06:53;48.75;;;28.98;;
62941;SDS011;49042;47.318;19.874;2023-04-06T17:09:55;33.10;;;20.45;;
62941;SDS011;49042;47.318;19.874;2023-04-06T17:12:57;27.02;;;16.70;;
62941;SDS011;49042;47.318;19.874;2023-04-06T17:15:59;27.05;;;18.05;;
62941;SDS011;49042;47.318;19.874;2023-04-06T17:19:01;28.62;;;21.15;;
62941;SDS011;49042;47.318;19.874;2023-04-06T17:22:03;32.25;;;18.95;;
62941;SDS011;49042;47.318;19.874;2023-04-06T17:25:05;35.78;;;18.20;;
62941;SDS011;49042;47.318;19.874;2023-04-06T17:28:07;25.83;;;16.95;;
62941;SDS011;49042;47.318;19.874;2023-04-06T17:31:09;30.85;;;19.35;;
62941;SDS011;49042;47.318;19.874;2023-04-06T17:34:12;28.75;;;18.42;;
62941;SDS011;49042;47.318;19.874;2023-04-06T17:37:13;24.17;;;15.90;;
62941;SDS011;49042;47.318;19.874;2023-04-06T17:40:15;27.13;;;18.52;;
62941;SDS011;49042;47.318;19.874;2023-04-06T17:43:17;22.87;;;16.48;;
62941;SDS011;49042;47.318;19.874;2023-04-06T17:46:19;32.25;;;19.90;;
62941;SDS011;49042;47.318;19.874;2023-04-06T17:49:21;26.33;;;16.35;;
62941;SDS011;49042;47.318;19.874;2023-04-06T17:52:24;25.77;;;15.98;;
62941;SDS011;49042;47.318;19.874;2023-04-06T17:55:27;30.80;;;18.00;;
62941;SDS011;49042;47.318;19.874;2023-04-06T17:58:29;25.95;;;17.17;;
62941;SDS011;49042;47.318;19.874;2023-04-06T18:01:31;30.00;;;19.30;;